Ana Sayfa
METAR-TAF:

METAR-TAF

Havaalanları :

Bleibler Ranch Aerodrome

Clinton, İngiliz Kolombiyası, Kanada

Enlem: 51-15-59N, Boylam: 121-41-05W, yükseklik: 1126 m

Güncel hava durumu gözlemi

Rapor saat 11:00 UTC de 35 dakika önce yapıldı.
Rüzgar güney/güneydoğudan 7 kt
Sıcaklık 8°C
Nem 87%
Basınç 1007 hPa
Görüş mesafesi: 14.5 km
4400 ft yükseklikte çok bulutlu
hafif yağmur

METAR: CYIN 201100Z AUTO 16007KT 9SM -RA OVC044 08/06 A2973 RMK SLP070 DENSITY ALT 3900FT

Saat: 04:35 (11:35 UTC)


TAF: eksik

4.000'den fazla havaalanı için hava durumu gözlemleri ve tahminleri (METAR ve TAF raporları).

Kullanılabilir istasyonlar harita üzerinde sarı ve kırmızı noktalarla gösterilir.

İstasyonun adını görmek için fareyi noktanın üzerinde gezdirin.

Sonrasında hava gözlem ve tahminlerini görmek için tıklayın.

Haritayı değiştirmek için: yaklaştırmak için siyah artı işaretli yeşil düğmeye ve uzaklaştırmak için de eksi işaretli düğmeye hızla tıklayın; bitişik haritalar için yeşil okları kullanın.


METAR-TAF: